Pequot Lakes, Minnesota
Current Conditions -  °F | °C
As of 11:34 PM on Saturday 20 Dec 2014 (Local Time) from KPWC Reporting Station
Haze Haze  
Wind Chill: 16°   Ceiling: 500
Heat Index: 27°   Visibility: 5mi
Dew Point: 27°   Wind: 13mph
Humidity: 100%   Direction: 160°SSE
Pressure: 30"   Gusts: 17mph
Location:  46.6°N, 94.31°W
Report Text: KPWC 210534Z AUTO 16011G15KT 5SM BR OVC005 M03/M03 A3000 RMK AO2
Loading
Personal Weather Stations






























Interactive Weather Map New forecast layout! Learn more

10-Day Weather Forecast

Advertisements
Track Severe Weather on mobile